createdAt,value
2022-08-14T00:05:24.925Z,1.10
2022-08-14T00:11:39.757Z,0.60
2022-08-14T00:17:53.883Z,1.17
2022-08-14T00:24:06.402Z,1.00
2022-08-14T00:30:22.005Z,1.07
2022-08-14T00:36:49.159Z,0.90
2022-08-14T00:42:55.194Z,0.85
2022-08-14T00:49:04.174Z,1.15
2022-08-14T00:55:20.239Z,0.47
2022-08-14T01:01:36.040Z,0.80
2022-08-14T01:07:54.129Z,0.80
2022-08-14T01:14:25.586Z,0.57
2022-08-14T01:20:39.864Z,1.10
2022-08-14T01:26:50.977Z,1.17
2022-08-14T01:33:05.297Z,2.20
2022-08-14T01:39:20.097Z,0.80
2022-08-14T01:45:40.709Z,0.70
2022-08-14T01:51:48.819Z,0.70
2022-08-14T01:58:19.569Z,0.78
2022-08-14T02:04:40.639Z,1.03
2022-08-14T02:10:35.496Z,0.60
2022-08-14T02:16:54.211Z,0.93
2022-08-14T02:23:08.486Z,1.00
2022-08-14T02:29:24.594Z,1.15
2022-08-14T02:35:40.636Z,0.80
2022-08-14T02:41:58.145Z,0.82
2022-08-14T02:49:04.868Z,1.22
2022-08-14T02:54:27.021Z,1.00
2022-08-14T03:00:41.622Z,0.82
2022-08-14T03:07:06.527Z,0.80
2022-08-14T03:13:19.143Z,0.53
2022-08-14T03:19:26.656Z,1.52
2022-08-14T03:25:38.221Z,1.20
2022-08-14T03:31:54.625Z,1.00
2022-08-14T03:39:13.604Z,1.47
2022-08-14T03:45:27.958Z,1.67
2022-08-14T03:50:47.037Z,2.30
2022-08-14T03:57:04.206Z,1.17
2022-08-14T04:03:23.589Z,1.97
2022-08-14T04:09:33.584Z,1.42
2022-08-14T04:15:56.672Z,1.45
2022-08-14T04:22:03.982Z,1.45
2022-08-14T04:29:07.075Z,1.72
2022-08-14T04:34:34.242Z,0.98
2022-08-14T04:41:03.706Z,1.55
2022-08-14T04:47:34.555Z,1.05
2022-08-14T04:53:48.277Z,1.32
2022-08-14T05:00:02.342Z,0.47
2022-08-14T05:06:37.198Z,1.22
2022-08-14T05:13:13.420Z,1.50
2022-08-14T05:19:18.223Z,1.10
2022-08-14T05:31:16.536Z,0.85
2022-08-14T05:37:33.234Z,0.73
2022-08-14T05:43:45.840Z,1.17
2022-08-14T05:50:01.327Z,1.00
2022-08-14T05:56:14.459Z,0.78
2022-08-14T06:02:28.557Z,1.10
2022-08-14T06:08:41.984Z,0.62
2022-08-14T06:14:56.071Z,0.80
2022-08-14T06:21:13.031Z,1.10
2022-08-14T06:27:25.508Z,0.98
2022-08-14T06:35:11.220Z,0.98
2022-08-14T06:39:52.477Z,1.37
2022-08-14T06:46:06.865Z,0.88
2022-08-14T06:52:20.999Z,0.97
2022-08-14T06:58:35.781Z,0.98
2022-08-14T07:05:13.009Z,0.85
2022-08-14T07:11:28.743Z,0.93
2022-08-14T07:17:43.838Z,0.98
2022-08-14T07:23:59.010Z,1.02
2022-08-14T07:30:33.943Z,1.32
2022-08-14T07:42:41.080Z,1.15
2022-08-14T07:48:55.089Z,0.75
2022-08-14T07:55:08.180Z,0.88
2022-08-14T08:01:21.967Z,0.78
2022-08-14T08:07:39.136Z,0.78
2022-08-14T08:13:54.614Z,0.90
2022-08-14T08:26:17.799Z,1.20
2022-08-14T08:32:32.228Z,1.17
2022-08-14T08:39:18.309Z,0.65
2022-08-14T08:45:03.535Z,0.55
2022-08-14T08:51:19.260Z,0.93
2022-08-14T08:57:33.771Z,0.60
2022-08-14T09:03:45.410Z,0.60
2022-08-14T09:10:02.639Z,0.75
2022-08-14T09:16:19.812Z,0.80
2022-08-14T09:22:36.202Z,0.65
2022-08-14T09:28:47.350Z,0.68
2022-08-14T09:35:08.464Z,0.68
2022-08-14T09:41:26.824Z,0.68
2022-08-14T09:47:58.249Z,0.62
2022-08-14T09:54:22.662Z,0.98
2022-08-14T10:00:35.121Z,0.98
2022-08-14T10:06:50.961Z,0.75
2022-08-14T10:13:06.391Z,0.82
2022-08-14T10:19:22.384Z,0.68
2022-08-14T10:25:39.932Z,1.07
2022-08-14T10:31:55.409Z,0.70
2022-08-14T10:38:10.768Z,0.65
2022-08-14T10:44:29.857Z,0.60
2022-08-14T10:50:47.097Z,0.50
2022-08-14T10:57:03.559Z,0.57
2022-08-14T11:03:26.854Z,1.00
2022-08-14T11:09:35.128Z,0.95
2022-08-14T11:15:51.244Z,0.70
2022-08-14T11:22:06.892Z,0.90
2022-08-14T11:28:47.259Z,0.63
2022-08-14T11:34:38.572Z,0.87
2022-08-14T11:40:53.125Z,0.65
2022-08-14T11:47:07.271Z,1.05
2022-08-14T11:53:32.749Z,0.90
2022-08-14T11:59:45.388Z,0.80
2022-08-14T12:06:29.310Z,1.02
2022-08-14T12:12:35.060Z,0.82
2022-08-14T12:18:48.269Z,0.50
2022-08-14T12:25:08.431Z,0.98
2022-08-14T12:31:24.535Z,0.82
2022-08-14T12:37:40.066Z,0.50
2022-08-14T12:43:59.756Z,0.60
2022-08-14T12:50:13.260Z,0.90
2022-08-14T12:56:33.197Z,0.90
2022-08-14T13:02:46.017Z,0.90
2022-08-14T13:08:59.958Z,0.95
2022-08-14T13:15:17.782Z,1.02
2022-08-14T13:21:58.980Z,2.25
2022-08-14T13:34:02.710Z,3.87
2022-08-14T13:40:21.294Z,3.30
2022-08-14T13:46:35.529Z,3.08
2022-08-14T13:52:54.757Z,2.42
2022-08-14T13:59:07.194Z,2.42
2022-08-14T14:05:23.397Z,2.87
2022-08-14T14:11:37.545Z,1.75
2022-08-14T14:17:50.151Z,2.12
2022-08-14T14:24:04.215Z,2.67
2022-08-14T14:30:52.687Z,2.55
2022-08-14T14:36:38.014Z,1.77
2022-08-14T14:42:55.706Z,1.25
2022-08-14T14:49:08.091Z,1.92
2022-08-14T14:55:23.734Z,1.95
2022-08-14T15:01:39.514Z,1.50
2022-08-14T15:07:54.248Z,1.55
2022-08-14T15:14:55.028Z,1.70
2022-08-14T15:20:29.912Z,1.85
2022-08-14T15:26:37.974Z,1.37
2022-08-14T15:32:53.834Z,1.55
2022-08-14T15:39:07.935Z,0.95
2022-08-14T15:45:24.000Z,1.47
2022-08-14T15:58:01.412Z,0.82
2022-08-14T16:04:02.862Z,1.10
2022-08-14T16:10:28.950Z,1.12
2022-08-14T16:16:50.547Z,1.13
2022-08-14T16:22:59.553Z,1.37
2022-08-14T16:35:16.336Z,1.72
2022-08-14T16:41:29.453Z,1.45
2022-08-14T16:47:44.595Z,1.27
2022-08-14T16:54:01.174Z,1.50
2022-08-14T17:00:19.767Z,1.30
2022-08-14T17:06:50.952Z,1.17
2022-08-14T17:13:09.773Z,1.52
2022-08-14T17:19:24.723Z,1.30
2022-08-14T17:25:40.377Z,1.50
2022-08-14T17:31:59.135Z,2.00
2022-08-14T17:38:38.456Z,1.50
2022-08-14T17:44:34.415Z,1.17
2022-08-14T17:50:59.326Z,1.57
2022-08-14T17:57:12.961Z,0.98
2022-08-14T18:03:44.939Z,1.45
2022-08-14T18:09:56.891Z,1.00
2022-08-14T18:16:00.217Z,1.30
2022-08-14T18:22:31.144Z,0.98
2022-08-14T18:28:47.915Z,1.23
2022-08-14T18:34:51.189Z,1.32
2022-08-14T18:41:07.092Z,0.88
2022-08-14T18:48:06.300Z,0.90
2022-08-14T18:54:03.984Z,1.50
2022-08-14T19:00:53.325Z,1.00
2022-08-14T19:07:16.211Z,0.80
2022-08-14T19:13:44.760Z,0.90
2022-08-14T19:26:33.777Z,0.65
2022-08-14T19:32:52.248Z,0.80
2022-08-14T19:39:18.147Z,1.27
2022-08-14T19:45:33.756Z,1.20
2022-08-14T19:52:20.804Z,0.90
2022-08-14T19:58:27.849Z,1.30
2022-08-14T20:04:47.794Z,1.27
2022-08-14T20:11:05.838Z,0.82
2022-08-14T20:17:09.487Z,0.80
2022-08-14T20:23:22.651Z,0.90
2022-08-14T20:29:40.683Z,1.17
2022-08-14T20:35:54.731Z,1.12
2022-08-14T20:42:32.118Z,0.80
2022-08-14T20:54:58.510Z,0.60
2022-08-14T21:01:18.584Z,0.95
2022-08-14T21:07:36.040Z,1.15
2022-08-14T21:14:26.635Z,0.33
2022-08-14T21:20:25.526Z,0.95
2022-08-14T21:32:50.299Z,0.50
2022-08-14T21:38:56.120Z,0.60
2022-08-14T21:45:11.782Z,0.90
2022-08-14T21:51:52.725Z,1.00
2022-08-14T21:57:56.632Z,0.98
2022-08-14T22:04:00.287Z,0.55
2022-08-14T22:10:22.923Z,0.90
2022-08-14T22:17:00.228Z,0.60
2022-08-14T22:29:00.389Z,0.90
2022-08-14T22:35:18.254Z,0.90
2022-08-14T22:41:35.237Z,1.22
2022-08-14T22:47:46.990Z,0.70
2022-08-14T22:53:56.838Z,0.37
2022-08-14T23:00:16.623Z,0.55
2022-08-14T23:07:01.403Z,0.60
2022-08-14T23:12:54.802Z,0.60
2022-08-14T23:19:04.282Z,0.80
2022-08-14T23:25:17.295Z,0.72
2022-08-14T23:31:35.825Z,0.80
2022-08-14T23:37:47.608Z,0.70
2022-08-14T23:44:03.223Z,0.72
2022-08-14T23:50:34.487Z,0.85
2022-08-14T23:56:34.063Z,0.68
